sensor_id;sensor_type;location;lat;lon;timestamp;P1;durP1;ratioP1;P2;durP2;ratioP2
18138;SDS011;9195;53.176;9.486;2022-10-16T00:01:58;3.70;;;3.60;;
18138;SDS011;9195;53.176;9.486;2022-10-16T00:04:23;3.77;;;3.67;;
18138;SDS011;9195;53.176;9.486;2022-10-16T00:06:49;4.00;;;3.90;;
18138;SDS011;9195;53.176;9.486;2022-10-16T00:09:14;4.40;;;4.20;;
18138;SDS011;9195;53.176;9.486;2022-10-16T00:11:40;3.97;;;3.87;;
18138;SDS011;9195;53.176;9.486;2022-10-16T00:14:07;4.07;;;3.97;;
18138;SDS011;9195;53.176;9.486;2022-10-16T00:16:38;4.13;;;4.03;;
18138;SDS011;9195;53.176;9.486;2022-10-16T00:19:04;4.23;;;4.13;;
18138;SDS011;9195;53.176;9.486;2022-10-16T00:21:30;5.20;;;5.00;;
18138;SDS011;9195;53.176;9.486;2022-10-16T00:23:57;5.00;;;4.80;;
18138;SDS011;9195;53.176;9.486;2022-10-16T00:26:29;4.87;;;4.67;;
18138;SDS011;9195;53.176;9.486;2022-10-16T00:28:57;4.93;;;4.73;;
18138;SDS011;9195;53.176;9.486;2022-10-16T00:31:23;5.03;;;4.83;;
18138;SDS011;9195;53.176;9.486;2022-10-16T00:33:49;4.90;;;4.70;;
18138;SDS011;9195;53.176;9.486;2022-10-16T00:36:16;5.00;;;4.80;;
18138;SDS011;9195;53.176;9.486;2022-10-16T00:38:43;5.07;;;4.87;;
18138;SDS011;9195;53.176;9.486;2022-10-16T00:41:11;5.10;;;4.90;;
18138;SDS011;9195;53.176;9.486;2022-10-16T00:43:51;5.43;;;5.23;;
18138;SDS011;9195;53.176;9.486;2022-10-16T00:46:29;5.57;;;5.37;;
18138;SDS011;9195;53.176;9.486;2022-10-16T00:49:01;5.20;;;5.00;;
18138;SDS011;9195;53.176;9.486;2022-10-16T00:51:40;5.07;;;4.87;;
18138;SDS011;9195;53.176;9.486;2022-10-16T00:54:10;5.00;;;4.80;;
18138;SDS011;9195;53.176;9.486;2022-10-16T00:56:39;5.33;;;5.13;;
18138;SDS011;9195;53.176;9.486;2022-10-16T00:59:09;5.00;;;4.80;;
18138;SDS011;9195;53.176;9.486;2022-10-16T01:01:47;5.30;;;5.10;;
18138;SDS011;9195;53.176;9.486;2022-10-16T01:04:13;5.50;;;5.30;;
18138;SDS011;9195;53.176;9.486;2022-10-16T01:06:42;5.20;;;5.00;;
18138;SDS011;9195;53.176;9.486;2022-10-16T01:09:40;5.10;;;4.90;;
18138;SDS011;9195;53.176;9.486;2022-10-16T01:12:35;5.33;;;5.13;;
18138;SDS011;9195;53.176;9.486;2022-10-16T01:20:32;5.00;;;4.80;;
18138;SDS011;9195;53.176;9.486;2022-10-16T01:28:48;5.30;;;5.10;;
18138;SDS011;9195;53.176;9.486;2022-10-16T01:31:21;5.10;;;4.90;;
18138;SDS011;9195;53.176;9.486;2022-10-16T01:33:53;5.10;;;4.90;;
18138;SDS011;9195;53.176;9.486;2022-10-16T01:36:45;5.13;;;4.93;;
18138;SDS011;9195;53.176;9.486;2022-10-16T01:39:16;5.23;;;5.03;;
18138;SDS011;9195;53.176;9.486;2022-10-16T01:41:47;4.90;;;4.70;;
18138;SDS011;9195;53.176;9.486;2022-10-16T01:44:21;5.00;;;4.80;;
18138;SDS011;9195;53.176;9.486;2022-10-16T01:46:51;4.83;;;4.63;;
18138;SDS011;9195;53.176;9.486;2022-10-16T01:49:19;4.83;;;4.63;;
18138;SDS011;9195;53.176;9.486;2022-10-16T01:51:47;4.90;;;4.70;;
18138;SDS011;9195;53.176;9.486;2022-10-16T01:54:17;5.03;;;4.83;;
18138;SDS011;9195;53.176;9.486;2022-10-16T01:56:44;4.80;;;4.60;;
18138;SDS011;9195;53.176;9.486;2022-10-16T01:59:13;4.83;;;4.63;;
18138;SDS011;9195;53.176;9.486;2022-10-16T02:01:42;5.07;;;4.87;;
18138;SDS011;9195;53.176;9.486;2022-10-16T02:04:17;5.30;;;5.10;;
18138;SDS011;9195;53.176;9.486;2022-10-16T02:06:48;4.60;;;4.40;;
18138;SDS011;9195;53.176;9.486;2022-10-16T02:09:13;5.17;;;4.97;;
18138;SDS011;9195;53.176;9.486;2022-10-16T02:11:41;4.70;;;4.50;;
18138;SDS011;9195;53.176;9.486;2022-10-16T02:14:08;4.70;;;4.50;;
18138;SDS011;9195;53.176;9.486;2022-10-16T02:16:35;4.77;;;4.57;;
18138;SDS011;9195;53.176;9.486;2022-10-16T02:19:02;5.00;;;4.80;;
18138;SDS011;9195;53.176;9.486;2022-10-16T02:21:30;5.20;;;5.00;;
18138;SDS011;9195;53.176;9.486;2022-10-16T02:26:49;4.63;;;4.43;;
18138;SDS011;9195;53.176;9.486;2022-10-16T02:29:19;4.63;;;4.43;;
18138;SDS011;9195;53.176;9.486;2022-10-16T02:31:49;4.67;;;4.47;;
18138;SDS011;9195;53.176;9.486;2022-10-16T02:34:18;4.70;;;4.50;;
18138;SDS011;9195;53.176;9.486;2022-10-16T02:36:47;4.63;;;4.43;;
18138;SDS011;9195;53.176;9.486;2022-10-16T02:39:15;4.80;;;4.60;;
18138;SDS011;9195;53.176;9.486;2022-10-16T02:41:41;4.40;;;4.20;;
18138;SDS011;9195;53.176;9.486;2022-10-16T02:44:07;4.40;;;4.20;;
18138;SDS011;9195;53.176;9.486;2022-10-16T02:46:33;4.20;;;4.10;;
18138;SDS011;9195;53.176;9.486;2022-10-16T02:48:59;4.53;;;4.33;;
18138;SDS011;9195;53.176;9.486;2022-10-16T02:51:24;4.07;;;3.97;;
18138;SDS011;9195;53.176;9.486;2022-10-16T02:53:50;4.60;;;4.40;;
18138;SDS011;9195;53.176;9.486;2022-10-16T02:56:15;4.40;;;4.20;;
18138;SDS011;9195;53.176;9.486;2022-10-16T02:58:41;4.77;;;4.57;;
18138;SDS011;9195;53.176;9.486;2022-10-16T03:01:07;4.37;;;4.20;;
18138;SDS011;9195;53.176;9.486;2022-10-16T03:03:32;4.40;;;4.20;;
18138;SDS011;9195;53.176;9.486;2022-10-16T03:05:58;4.60;;;4.40;;
18138;SDS011;9195;53.176;9.486;2022-10-16T03:08:24;4.40;;;4.20;;
18138;SDS011;9195;53.176;9.486;2022-10-16T03:10:50;4.73;;;4.53;;
18138;SDS011;9195;53.176;9.486;2022-10-16T03:13:16;4.50;;;4.30;;
18138;SDS011;9195;53.176;9.486;2022-10-16T03:15:45;4.20;;;4.10;;
18138;SDS011;9195;53.176;9.486;2022-10-16T03:18:11;4.70;;;4.50;;
18138;SDS011;9195;53.176;9.486;2022-10-16T03:20:36;4.63;;;4.43;;
18138;SDS011;9195;53.176;9.486;2022-10-16T03:23:02;4.40;;;4.20;;
18138;SDS011;9195;53.176;9.486;2022-10-16T03:25:28;4.23;;;4.10;;
18138;SDS011;9195;53.176;9.486;2022-10-16T03:27:53;3.90;;;3.80;;
18138;SDS011;9195;53.176;9.486;2022-10-16T03:30:19;4.40;;;4.20;;
18138;SDS011;9195;53.176;9.486;2022-10-16T03:32:45;3.90;;;3.80;;
18138;SDS011;9195;53.176;9.486;2022-10-16T03:35:11;4.00;;;3.90;;
18138;SDS011;9195;53.176;9.486;2022-10-16T03:37:37;3.83;;;3.73;;
18138;SDS011;9195;53.176;9.486;2022-10-16T03:40:03;3.93;;;3.83;;
18138;SDS011;9195;53.176;9.486;2022-10-16T03:42:29;3.97;;;3.87;;
18138;SDS011;9195;53.176;9.486;2022-10-16T03:44:55;4.10;;;4.00;;
18138;SDS011;9195;53.176;9.486;2022-10-16T03:47:21;3.90;;;3.80;;
18138;SDS011;9195;53.176;9.486;2022-10-16T03:49:48;4.00;;;3.90;;
18138;SDS011;9195;53.176;9.486;2022-10-16T03:52:14;3.77;;;3.67;;
18138;SDS011;9195;53.176;9.486;2022-10-16T03:54:40;3.77;;;3.67;;
18138;SDS011;9195;53.176;9.486;2022-10-16T03:57:06;3.70;;;3.60;;
18138;SDS011;9195;53.176;9.486;2022-10-16T03:59:32;3.60;;;3.50;;
18138;SDS011;9195;53.176;9.486;2022-10-16T04:01:58;3.57;;;3.47;;
18138;SDS011;9195;53.176;9.486;2022-10-16T04:04:23;3.90;;;3.80;;
18138;SDS011;9195;53.176;9.486;2022-10-16T04:06:49;3.80;;;3.70;;
18138;SDS011;9195;53.176;9.486;2022-10-16T04:09:15;3.80;;;3.70;;
18138;SDS011;9195;53.176;9.486;2022-10-16T04:11:41;3.50;;;3.40;;
18138;SDS011;9195;53.176;9.486;2022-10-16T04:14:07;3.80;;;3.70;;
18138;SDS011;9195;53.176;9.486;2022-10-16T04:16:32;3.73;;;3.63;;
18138;SDS011;9195;53.176;9.486;2022-10-16T04:18:58;3.90;;;3.80;;
18138;SDS011;9195;53.176;9.486;2022-10-16T04:21:23;4.10;;;4.00;;
18138;SDS011;9195;53.176;9.486;2022-10-16T04:23:49;3.70;;;3.60;;
18138;SDS011;9195;53.176;9.486;2022-10-16T04:26:15;3.60;;;3.50;;
18138;SDS011;9195;53.176;9.486;2022-10-16T04:28:40;3.50;;;3.40;;
18138;SDS011;9195;53.176;9.486;2022-10-16T04:31:06;3.60;;;3.50;;
18138;SDS011;9195;53.176;9.486;2022-10-16T04:33:32;3.63;;;3.53;;
18138;SDS011;9195;53.176;9.486;2022-10-16T04:35:58;3.43;;;3.33;;
18138;SDS011;9195;53.176;9.486;2022-10-16T04:38:25;3.50;;;3.40;;
18138;SDS011;9195;53.176;9.486;2022-10-16T04:40:51;3.57;;;3.47;;
18138;SDS011;9195;53.176;9.486;2022-10-16T04:43:17;3.40;;;3.30;;
18138;SDS011;9195;53.176;9.486;2022-10-16T04:45:43;3.50;;;3.40;;
18138;SDS011;9195;53.176;9.486;2022-10-16T04:48:09;3.10;;;3.00;;
18138;SDS011;9195;53.176;9.486;2022-10-16T04:50:34;3.27;;;3.17;;
18138;SDS011;9195;53.176;9.486;2022-10-16T04:53:00;3.50;;;3.40;;
18138;SDS011;9195;53.176;9.486;2022-10-16T04:55:26;3.40;;;3.30;;
18138;SDS011;9195;53.176;9.486;2022-10-16T04:57:51;3.40;;;3.30;;
18138;SDS011;9195;53.176;9.486;2022-10-16T05:00:17;3.60;;;3.50;;
18138;SDS011;9195;53.176;9.486;2022-10-16T05:02:43;3.30;;;3.20;;
18138;SDS011;9195;53.176;9.486;2022-10-16T05:05:08;3.30;;;3.20;;
18138;SDS011;9195;53.176;9.486;2022-10-16T05:07:34;3.40;;;3.30;;
18138;SDS011;9195;53.176;9.486;2022-10-16T05:10:00;3.67;;;3.57;;
18138;SDS011;9195;53.176;9.486;2022-10-16T05:12:26;3.30;;;3.20;;
18138;SDS011;9195;53.176;9.486;2022-10-16T05:14:51;3.20;;;3.10;;
18138;SDS011;9195;53.176;9.486;2022-10-16T05:17:17;3.37;;;3.27;;
18138;SDS011;9195;53.176;9.486;2022-10-16T05:19:42;3.20;;;3.10;;
18138;SDS011;9195;53.176;9.486;2022-10-16T05:22:08;3.37;;;3.27;;
18138;SDS011;9195;53.176;9.486;2022-10-16T05:24:34;3.10;;;3.00;;
18138;SDS011;9195;53.176;9.486;2022-10-16T05:26:59;3.10;;;3.00;;
18138;SDS011;9195;53.176;9.486;2022-10-16T05:29:25;3.20;;;3.10;;
18138;SDS011;9195;53.176;9.486;2022-10-16T05:31:54;4.13;;;4.03;;
18138;SDS011;9195;53.176;9.486;2022-10-16T05:34:19;3.67;;;3.57;;
18138;SDS011;9195;53.176;9.486;2022-10-16T05:36:45;3.20;;;3.10;;
18138;SDS011;9195;53.176;9.486;2022-10-16T05:39:11;3.10;;;3.00;;
18138;SDS011;9195;53.176;9.486;2022-10-16T05:41:38;3.20;;;3.10;;
18138;SDS011;9195;53.176;9.486;2022-10-16T05:44:04;3.27;;;3.17;;
18138;SDS011;9195;53.176;9.486;2022-10-16T05:46:31;3.00;;;2.90;;
18138;SDS011;9195;53.176;9.486;2022-10-16T05:48:57;2.90;;;2.80;;
18138;SDS011;9195;53.176;9.486;2022-10-16T05:51:23;2.80;;;2.70;;
18138;SDS011;9195;53.176;9.486;2022-10-16T05:53:49;3.10;;;3.00;;
18138;SDS011;9195;53.176;9.486;2022-10-16T05:56:14;3.20;;;3.10;;
18138;SDS011;9195;53.176;9.486;2022-10-16T05:58:41;3.07;;;2.97;;
18138;SDS011;9195;53.176;9.486;2022-10-16T06:01:11;3.03;;;2.93;;
18138;SDS011;9195;53.176;9.486;2022-10-16T06:03:41;3.17;;;3.07;;
18138;SDS011;9195;53.176;9.486;2022-10-16T06:06:11;3.00;;;2.90;;
18138;SDS011;9195;53.176;9.486;2022-10-16T06:08:39;3.10;;;3.00;;
18138;SDS011;9195;53.176;9.486;2022-10-16T06:11:06;2.90;;;2.80;;
18138;SDS011;9195;53.176;9.486;2022-10-16T06:13:34;3.00;;;2.90;;
18138;SDS011;9195;53.176;9.486;2022-10-16T06:16:00;3.00;;;2.90;;
18138;SDS011;9195;53.176;9.486;2022-10-16T06:18:27;2.83;;;2.73;;
18138;SDS011;9195;53.176;9.486;2022-10-16T06:20:53;2.80;;;2.70;;
18138;SDS011;9195;53.176;9.486;2022-10-16T06:23:20;2.87;;;2.77;;
18138;SDS011;9195;53.176;9.486;2022-10-16T06:25:46;2.63;;;2.53;;
18138;SDS011;9195;53.176;9.486;2022-10-16T06:28:13;3.03;;;2.93;;
18138;SDS011;9195;53.176;9.486;2022-10-16T06:30:39;2.90;;;2.80;;
18138;SDS011;9195;53.176;9.486;2022-10-16T06:33:05;2.90;;;2.80;;
18138;SDS011;9195;53.176;9.486;2022-10-16T06:35:30;2.80;;;2.70;;
18138;SDS011;9195;53.176;9.486;2022-10-16T06:37:57;2.90;;;2.80;;
18138;SDS011;9195;53.176;9.486;2022-10-16T06:40:23;2.70;;;2.60;;
18138;SDS011;9195;53.176;9.486;2022-10-16T06:42:48;2.97;;;2.87;;
18138;SDS011;9195;53.176;9.486;2022-10-16T06:45:15;2.90;;;2.80;;
18138;SDS011;9195;53.176;9.486;2022-10-16T06:47:40;2.80;;;2.70;;
18138;SDS011;9195;53.176;9.486;2022-10-16T06:50:06;2.90;;;2.80;;
18138;SDS011;9195;53.176;9.486;2022-10-16T06:52:32;3.20;;;3.10;;
18138;SDS011;9195;53.176;9.486;2022-10-16T06:54:58;3.00;;;2.90;;
18138;SDS011;9195;53.176;9.486;2022-10-16T06:57:24;3.10;;;3.00;;
18138;SDS011;9195;53.176;9.486;2022-10-16T06:59:50;3.50;;;3.40;;
18138;SDS011;9195;53.176;9.486;2022-10-16T07:02:15;3.30;;;3.20;;
18138;SDS011;9195;53.176;9.486;2022-10-16T07:04:41;3.33;;;3.23;;
18138;SDS011;9195;53.176;9.486;2022-10-16T07:07:06;3.30;;;3.20;;
18138;SDS011;9195;53.176;9.486;2022-10-16T07:09:32;3.30;;;3.20;;
18138;SDS011;9195;53.176;9.486;2022-10-16T07:11:58;3.53;;;3.43;;
18138;SDS011;9195;53.176;9.486;2022-10-16T07:14:23;3.40;;;3.30;;
18138;SDS011;9195;53.176;9.486;2022-10-16T07:16:49;4.90;;;4.70;;
18138;SDS011;9195;53.176;9.486;2022-10-16T07:19:15;5.80;;;5.60;;
18138;SDS011;9195;53.176;9.486;2022-10-16T07:21:42;3.90;;;3.80;;
18138;SDS011;9195;53.176;9.486;2022-10-16T07:24:13;3.80;;;3.70;;
18138;SDS011;9195;53.176;9.486;2022-10-16T07:26:40;4.90;;;4.70;;
18138;SDS011;9195;53.176;9.486;2022-10-16T07:29:08;4.53;;;4.33;;
18138;SDS011;9195;53.176;9.486;2022-10-16T07:31:38;4.27;;;4.17;;
18138;SDS011;9195;53.176;9.486;2022-10-16T07:34:04;4.17;;;4.07;;
18138;SDS011;9195;53.176;9.486;2022-10-16T07:36:30;4.50;;;4.30;;
18138;SDS011;9195;53.176;9.486;2022-10-16T07:38:56;4.53;;;4.33;;
18138;SDS011;9195;53.176;9.486;2022-10-16T07:41:22;4.30;;;4.17;;
18138;SDS011;9195;53.176;9.486;2022-10-16T07:43:48;4.40;;;4.20;;
18138;SDS011;9195;53.176;9.486;2022-10-16T07:46:16;4.80;;;4.60;;
18138;SDS011;9195;53.176;9.486;2022-10-16T07:48:43;4.80;;;4.60;;
18138;SDS011;9195;53.176;9.486;2022-10-16T07:51:12;4.63;;;4.43;;
18138;SDS011;9195;53.176;9.486;2022-10-16T07:53:39;5.37;;;5.17;;
18138;SDS011;9195;53.176;9.486;2022-10-16T07:56:05;5.30;;;5.10;;
18138;SDS011;9195;53.176;9.486;2022-10-16T07:58:32;5.53;;;5.33;;
18138;SDS011;9195;53.176;9.486;2022-10-16T08:01:02;6.03;;;5.83;;
18138;SDS011;9195;53.176;9.486;2022-10-16T08:03:29;6.10;;;5.90;;
18138;SDS011;9195;53.176;9.486;2022-10-16T08:05:56;6.17;;;5.97;;
18138;SDS011;9195;53.176;9.486;2022-10-16T08:08:23;6.30;;;6.10;;
18138;SDS011;9195;53.176;9.486;2022-10-16T08:10:49;6.50;;;6.30;;
18138;SDS011;9195;53.176;9.486;2022-10-16T08:13:15;7.00;;;6.70;;
18138;SDS011;9195;53.176;9.486;2022-10-16T08:15:41;7.10;;;6.80;;
18138;SDS011;9195;53.176;9.486;2022-10-16T08:18:07;7.07;;;6.77;;
18138;SDS011;9195;53.176;9.486;2022-10-16T08:20:34;7.13;;;6.83;;
18138;SDS011;9195;53.176;9.486;2022-10-16T08:23:00;6.97;;;6.67;;
18138;SDS011;9195;53.176;9.486;2022-10-16T08:25:26;7.23;;;6.93;;
18138;SDS011;9195;53.176;9.486;2022-10-16T08:27:52;7.40;;;7.10;;
18138;SDS011;9195;53.176;9.486;2022-10-16T08:30:18;7.77;;;7.47;;
18138;SDS011;9195;53.176;9.486;2022-10-16T08:32:45;7.30;;;7.00;;
18138;SDS011;9195;53.176;9.486;2022-10-16T08:35:11;7.33;;;7.03;;
18138;SDS011;9195;53.176;9.486;2022-10-16T08:37:38;7.30;;;7.00;;
18138;SDS011;9195;53.176;9.486;2022-10-16T08:40:05;7.40;;;7.10;;
18138;SDS011;9195;53.176;9.486;2022-10-16T08:42:39;7.43;;;7.13;;
18138;SDS011;9195;53.176;9.486;2022-10-16T08:48:29;8.10;;;7.80;;
18138;SDS011;9195;53.176;9.486;2022-10-16T08:51:07;8.30;;;8.00;;
18138;SDS011;9195;53.176;9.486;2022-10-16T08:53:42;9.90;;;9.50;;
18138;SDS011;9195;53.176;9.486;2022-10-16T08:56:13;10.30;;;9.90;;
18138;SDS011;9195;53.176;9.486;2022-10-16T08:58:39;10.30;;;9.90;;
18138;SDS011;9195;53.176;9.486;2022-10-16T09:01:12;10.40;;;10.00;;
18138;SDS011;9195;53.176;9.486;2022-10-16T09:09:46;11.30;;;10.80;;
18138;SDS011;9195;53.176;9.486;2022-10-16T09:20:18;11.40;;;10.90;;
18138;SDS011;9195;53.176;9.486;2022-10-16T09:22:44;11.87;;;11.37;;
18138;SDS011;9195;53.176;9.486;2022-10-16T09:25:14;11.10;;;10.60;;
18138;SDS011;9195;53.176;9.486;2022-10-16T09:27:44;11.13;;;10.63;;
18138;SDS011;9195;53.176;9.486;2022-10-16T09:30:16;11.57;;;11.07;;
18138;SDS011;9195;53.176;9.486;2022-10-16T09:32:43;10.90;;;10.47;;
18138;SDS011;9195;53.176;9.486;2022-10-16T09:35:16;11.50;;;11.00;;
18138;SDS011;9195;53.176;9.486;2022-10-16T09:37:47;11.87;;;11.37;;
18138;SDS011;9195;53.176;9.486;2022-10-16T09:40:26;11.20;;;10.70;;
18138;SDS011;9195;53.176;9.486;2022-10-16T09:43:19;11.33;;;10.83;;
18138;SDS011;9195;53.176;9.486;2022-10-16T09:45:42;11.80;;;11.30;;
18138;SDS011;9195;53.176;9.486;2022-10-16T09:48:18;11.20;;;10.70;;
18138;SDS011;9195;53.176;9.486;2022-10-16T09:50:54;12.03;;;11.53;;
18138;SDS011;9195;53.176;9.486;2022-10-16T09:53:40;11.50;;;11.00;;
18138;SDS011;9195;53.176;9.486;2022-10-16T09:56:09;11.90;;;11.40;;
18138;SDS011;9195;53.176;9.486;2022-10-16T09:58:41;12.20;;;11.70;;
18138;SDS011;9195;53.176;9.486;2022-10-16T10:01:12;11.90;;;11.40;;
18138;SDS011;9195;53.176;9.486;2022-10-16T10:03:40;12.40;;;11.90;;
18138;SDS011;9195;53.176;9.486;2022-10-16T10:06:16;12.70;;;12.20;;
18138;SDS011;9195;53.176;9.486;2022-10-16T10:08:54;12.70;;;12.20;;
18138;SDS011;9195;53.176;9.486;2022-10-16T10:14:27;12.30;;;11.80;;
18138;SDS011;9195;53.176;9.486;2022-10-16T10:16:51;12.93;;;12.33;;
18138;SDS011;9195;53.176;9.486;2022-10-16T10:19:26;12.97;;;12.37;;
18138;SDS011;9195;53.176;9.486;2022-10-16T10:21:52;12.33;;;11.83;;
18138;SDS011;9195;53.176;9.486;2022-10-16T10:24:18;13.07;;;12.47;;
18138;SDS011;9195;53.176;9.486;2022-10-16T10:26:47;12.63;;;12.13;;
18138;SDS011;9195;53.176;9.486;2022-10-16T10:29:28;13.03;;;12.43;;
18138;SDS011;9195;53.176;9.486;2022-10-16T10:37:48;13.30;;;12.70;;
18138;SDS011;9195;53.176;9.486;2022-10-16T10:46:04;13.33;;;12.73;;
18138;SDS011;9195;53.176;9.486;2022-10-16T10:48:54;13.67;;;13.07;;
18138;SDS011;9195;53.176;9.486;2022-10-16T10:51:51;13.03;;;12.43;;
18138;SDS011;9195;53.176;9.486;2022-10-16T10:54:43;12.70;;;12.20;;
18138;SDS011;9195;53.176;9.486;2022-10-16T10:57:30;13.40;;;12.80;;
18138;SDS011;9195;53.176;9.486;2022-10-16T11:00:06;13.57;;;12.97;;
18138;SDS011;9195;53.176;9.486;2022-10-16T11:02:48;13.38;;;12.77;;
18138;SDS011;9195;53.176;9.486;2022-10-16T11:05:23;13.57;;;12.98;;
18138;SDS011;9195;53.176;9.486;2022-10-16T11:10:58;13.17;;;12.57;;
18138;SDS011;9195;53.176;9.486;2022-10-16T11:13:33;13.60;;;13.00;;
18138;SDS011;9195;53.176;9.486;2022-10-16T11:16:21;13.27;;;12.67;;
18138;SDS011;9195;53.176;9.486;2022-10-16T11:21:36;13.68;;;13.07;;
18138;SDS011;9195;53.176;9.486;2022-10-16T11:24:23;13.30;;;12.70;;
18138;SDS011;9195;53.176;9.486;2022-10-16T11:27:00;13.77;;;13.18;;
18138;SDS011;9195;53.176;9.486;2022-10-16T11:29:32;14.00;;;13.40;;
18138;SDS011;9195;53.176;9.486;2022-10-16T11:32:01;13.13;;;12.52;;
18138;SDS011;9195;53.176;9.486;2022-10-16T11:34:37;13.93;;;13.32;;
18138;SDS011;9195;53.176;9.486;2022-10-16T11:39:36;14.60;;;14.00;;
18138;SDS011;9195;53.176;9.486;2022-10-16T11:42:07;14.20;;;13.60;;
18138;SDS011;9195;53.176;9.486;2022-10-16T11:44:41;14.85;;;14.15;;
18138;SDS011;9195;53.176;9.486;2022-10-16T11:49:57;13.73;;;13.13;;
18138;SDS011;9195;53.176;9.486;2022-10-16T11:55:20;13.98;;;13.38;;
18138;SDS011;9195;53.176;9.486;2022-10-16T11:58:05;14.50;;;13.90;;
18138;SDS011;9195;53.176;9.486;2022-10-16T12:06:14;14.68;;;14.02;;
18138;SDS011;9195;53.176;9.486;2022-10-16T12:08:48;14.88;;;14.18;;
18138;SDS011;9195;53.176;9.486;2022-10-16T12:11:23;14.85;;;14.18;;
18138;SDS011;9195;53.176;9.486;2022-10-16T12:13:49;14.63;;;14.02;;
18138;SDS011;9195;53.176;9.486;2022-10-16T12:18:42;14.90;;;14.20;;
18138;SDS011;9195;53.176;9.486;2022-10-16T12:21:09;15.10;;;14.40;;
18138;SDS011;9195;53.176;9.486;2022-10-16T12:23:54;15.10;;;14.40;;
18138;SDS011;9195;53.176;9.486;2022-10-16T12:26:32;14.57;;;13.98;;
18138;SDS011;9195;53.176;9.486;2022-10-16T12:29:18;14.57;;;13.98;;
18138;SDS011;9195;53.176;9.486;2022-10-16T12:31:58;15.27;;;14.57;;
18138;SDS011;9195;53.176;9.486;2022-10-16T12:34:32;15.23;;;14.52;;
18138;SDS011;9195;53.176;9.486;2022-10-16T12:37:21;15.73;;;15.02;;
18138;SDS011;9195;53.176;9.486;2022-10-16T12:40:12;15.10;;;14.40;;
18138;SDS011;9195;53.176;9.486;2022-10-16T12:42:38;14.40;;;13.80;;
18138;SDS011;9195;53.176;9.486;2022-10-16T12:45:23;13.88;;;13.27;;
18138;SDS011;9195;53.176;9.486;2022-10-16T12:47:53;14.15;;;13.55;;
18138;SDS011;9195;53.176;9.486;2022-10-16T12:52:56;13.57;;;12.98;;
18138;SDS011;9195;53.176;9.486;2022-10-16T12:55:22;14.15;;;13.55;;
18138;SDS011;9195;53.176;9.486;2022-10-16T13:08:44;14.07;;;13.48;;
18138;SDS011;9195;53.176;9.486;2022-10-16T13:11:30;13.52;;;12.93;;
18138;SDS011;9195;53.176;9.486;2022-10-16T13:16:50;13.03;;;12.43;;
18138;SDS011;9195;53.176;9.486;2022-10-16T13:19:47;13.57;;;12.97;;
18138;SDS011;9195;53.176;9.486;2022-10-16T13:22:32;13.40;;;12.80;;
18138;SDS011;9195;53.176;9.486;2022-10-16T13:28:12;13.20;;;12.60;;
18138;SDS011;9195;53.176;9.486;2022-10-16T13:30:42;13.17;;;12.57;;
18138;SDS011;9195;53.176;9.486;2022-10-16T13:36:05;12.80;;;12.30;;
18138;SDS011;9195;53.176;9.486;2022-10-16T13:38:32;12.67;;;12.17;;
18138;SDS011;9195;53.176;9.486;2022-10-16T13:43:29;12.60;;;12.10;;
18138;SDS011;9195;53.176;9.486;2022-10-16T13:48:25;13.37;;;12.77;;
18138;SDS011;9195;53.176;9.486;2022-10-16T13:50:58;13.93;;;13.33;;
18138;SDS011;9195;53.176;9.486;2022-10-16T13:53:43;14.18;;;13.57;;
18138;SDS011;9195;53.176;9.486;2022-10-16T13:56:18;13.63;;;13.02;;
18138;SDS011;9195;53.176;9.486;2022-10-16T13:58:46;13.57;;;12.98;;
18138;SDS011;9195;53.176;9.486;2022-10-16T14:01:24;13.93;;;13.32;;
18138;SDS011;9195;53.176;9.486;2022-10-16T14:03:52;13.82;;;13.23;;
18138;SDS011;9195;53.176;9.486;2022-10-16T14:06:25;14.00;;;13.40;;
18138;SDS011;9195;53.176;9.486;2022-10-16T14:11:52;14.25;;;13.65;;
18138;SDS011;9195;53.176;9.486;2022-10-16T14:14:20;15.02;;;14.32;;
18138;SDS011;9195;53.176;9.486;2022-10-16T14:16:47;14.50;;;13.90;;
18138;SDS011;9195;53.176;9.486;2022-10-16T14:19:23;15.07;;;14.38;;
18138;SDS011;9195;53.176;9.486;2022-10-16T14:21:51;14.98;;;14.27;;
18138;SDS011;9195;53.176;9.486;2022-10-16T14:26:56;14.48;;;13.88;;
18138;SDS011;9195;53.176;9.486;2022-10-16T14:29:22;14.60;;;14.00;;
18138;SDS011;9195;53.176;9.486;2022-10-16T14:31:55;14.48;;;13.88;;
18138;SDS011;9195;53.176;9.486;2022-10-16T14:34:33;14.50;;;13.90;;
18138;SDS011;9195;53.176;9.486;2022-10-16T14:37:01;14.77;;;14.13;;
18138;SDS011;9195;53.176;9.486;2022-10-16T14:39:40;15.00;;;14.30;;
18138;SDS011;9195;53.176;9.486;2022-10-16T14:42:11;14.45;;;13.85;;
18138;SDS011;9195;53.176;9.486;2022-10-16T14:44:42;14.45;;;13.85;;
18138;SDS011;9195;53.176;9.486;2022-10-16T14:47:08;14.33;;;13.73;;
18138;SDS011;9195;53.176;9.486;2022-10-16T14:49:38;14.43;;;13.83;;
18138;SDS011;9195;53.176;9.486;2022-10-16T14:52:10;14.20;;;13.60;;
18138;SDS011;9195;53.176;9.486;2022-10-16T14:54:37;14.23;;;13.63;;
18138;SDS011;9195;53.176;9.486;2022-10-16T14:57:03;14.13;;;13.53;;
18138;SDS011;9195;53.176;9.486;2022-10-16T14:59:36;14.40;;;13.80;;
18138;SDS011;9195;53.176;9.486;2022-10-16T15:04:48;14.50;;;13.90;;
18138;SDS011;9195;53.176;9.486;2022-10-16T15:07:13;14.03;;;13.43;;
18138;SDS011;9195;53.176;9.486;2022-10-16T15:09:39;13.93;;;13.33;;
18138;SDS011;9195;53.176;9.486;2022-10-16T15:12:05;14.03;;;13.43;;
18138;SDS011;9195;53.176;9.486;2022-10-16T15:14:36;13.83;;;13.23;;
18138;SDS011;9195;53.176;9.486;2022-10-16T15:17:02;14.00;;;13.40;;
18138;SDS011;9195;53.176;9.486;2022-10-16T15:19:28;14.20;;;13.60;;
18138;SDS011;9195;53.176;9.486;2022-10-16T15:21:54;14.40;;;13.80;;
18138;SDS011;9195;53.176;9.486;2022-10-16T15:24:20;14.53;;;13.93;;
18138;SDS011;9195;53.176;9.486;2022-10-16T15:26:45;14.53;;;13.93;;
18138;SDS011;9195;53.176;9.486;2022-10-16T15:29:11;14.80;;;14.10;;
18138;SDS011;9195;53.176;9.486;2022-10-16T15:31:37;14.33;;;13.73;;
18138;SDS011;9195;53.176;9.486;2022-10-16T15:34:03;14.03;;;13.43;;
18138;SDS011;9195;53.176;9.486;2022-10-16T15:36:34;13.87;;;13.27;;
18138;SDS011;9195;53.176;9.486;2022-10-16T15:39:20;13.40;;;12.80;;
18138;SDS011;9195;53.176;9.486;2022-10-16T15:41:46;13.37;;;12.77;;
18138;SDS011;9195;53.176;9.486;2022-10-16T15:44:15;13.40;;;12.80;;
18138;SDS011;9195;53.176;9.486;2022-10-16T15:46:42;13.30;;;12.70;;
18138;SDS011;9195;53.176;9.486;2022-10-16T15:49:08;13.10;;;12.50;;
18138;SDS011;9195;53.176;9.486;2022-10-16T15:51:34;13.33;;;12.73;;
18138;SDS011;9195;53.176;9.486;2022-10-16T15:54:04;12.77;;;12.27;;
18138;SDS011;9195;53.176;9.486;2022-10-16T15:56:30;13.20;;;12.60;;
18138;SDS011;9195;53.176;9.486;2022-10-16T15:58:58;13.03;;;12.43;;
18138;SDS011;9195;53.176;9.486;2022-10-16T16:01:24;13.90;;;13.30;;
18138;SDS011;9195;53.176;9.486;2022-10-16T16:03:54;14.03;;;13.43;;
18138;SDS011;9195;53.176;9.486;2022-10-16T16:06:20;15.00;;;14.30;;
18138;SDS011;9195;53.176;9.486;2022-10-16T16:08:47;13.83;;;13.23;;
18138;SDS011;9195;53.176;9.486;2022-10-16T16:11:14;14.53;;;13.93;;
18138;SDS011;9195;53.176;9.486;2022-10-16T16:13:40;14.03;;;13.43;;
18138;SDS011;9195;53.176;9.486;2022-10-16T16:16:07;14.10;;;13.50;;
18138;SDS011;9195;53.176;9.486;2022-10-16T16:18:33;14.30;;;13.70;;
18138;SDS011;9195;53.176;9.486;2022-10-16T16:20:59;13.63;;;13.03;;
18138;SDS011;9195;53.176;9.486;2022-10-16T16:23:25;13.43;;;12.83;;
18138;SDS011;9195;53.176;9.486;2022-10-16T16:26:03;13.73;;;13.13;;
18138;SDS011;9195;53.176;9.486;2022-10-16T16:28:30;13.50;;;12.90;;
18138;SDS011;9195;53.176;9.486;2022-10-16T16:30:56;13.27;;;12.67;;
18138;SDS011;9195;53.176;9.486;2022-10-16T16:33:21;13.10;;;12.50;;
18138;SDS011;9195;53.176;9.486;2022-10-16T16:35:47;13.37;;;12.77;;
18138;SDS011;9195;53.176;9.486;2022-10-16T16:38:13;12.70;;;12.20;;
18138;SDS011;9195;53.176;9.486;2022-10-16T16:40:38;13.57;;;12.97;;
18138;SDS011;9195;53.176;9.486;2022-10-16T16:43:04;13.60;;;13.00;;
18138;SDS011;9195;53.176;9.486;2022-10-16T16:45:29;13.17;;;12.57;;
18138;SDS011;9195;53.176;9.486;2022-10-16T16:47:55;13.40;;;12.80;;